Time;durP1;ratioP1;P1;durP2;ratioP2;P2;SDS_P1;SDS_P2;PMS_P1;PMS_P2;Temp;Humidity;BMP_temperature;BMP_pressure;BME280_temperature;BME280_humidity;BME280_pressure;Samples;Min_cycle;Max_cycle;Signal;HPM_P1;HPM_P2
2023/02/17 00:01:30;;;;;;;12.00;5.40;;;;;;;-128.00;-1.00;-1.00;106434;1253;1012567;-49
2023/02/17 00:03:59;;;;;;;11.00;6.40;;;;;;;-128.00;-1.00;-1.00;106180;1253;1012941;-48
2023/02/17 00:06:28;;;;;;;11.10;5.30;;;;;;;-128.00;-1.00;-1.00;102631;1254;1002517;-46
2023/02/17 00:09:00;;;;;;;11.50;6.60;;;;;;;-128.00;-1.00;-1.00;103521;1254;1010175;-47
2023/02/17 00:11:29;;;;;;;12.80;7.60;;;;;;;-128.00;-1.00;-1.00;102894;1256;1011180;-49
2023/02/17 00:13:57;;;;;;;10.70;6.60;;;;;;;-128.00;-1.00;-1.00;102572;1254;1002384;-47
2023/02/17 00:16:25;;;;;;;11.00;6.50;;;;;;;-128.00;-1.00;-1.00;103590;1254;1012156;-48
2023/02/17 00:18:58;;;;;;;14.00;7.30;;;;;;;-128.00;-1.00;-1.00;103035;1257;1012488;-49
2023/02/17 00:21:28;;;;;;;12.70;6.70;;;;;;;-128.00;-1.00;-1.00;106590;1253;1010722;-47
2023/02/17 00:23:56;;;;;;;17.30;8.10;;;;;;;-128.00;-1.00;-1.00;106449;1253;1010333;-48
2023/02/17 00:26:24;;;;;;;13.60;7.10;;;;;;;-128.00;-1.00;-1.00;103339;1257;1012545;-46
2023/02/17 00:28:53;;;;;;;14.00;7.80;;;;;;;-128.00;-1.00;-1.00;103176;1256;1013694;-48
2023/02/17 00:31:23;;;;;;;17.70;8.30;;;;;;;-128.00;-1.00;-1.00;102585;1257;1013113;-47
2023/02/17 00:33:53;;;;;;;13.60;7.80;;;;;;;-128.00;-1.00;-1.00;102661;1256;1010882;-49
2023/02/17 00:36:22;;;;;;;14.60;7.00;;;;;;;-128.00;-1.00;-1.00;102730;1254;1010675;-48
2023/02/17 00:38:52;;;;;;;13.20;6.30;;;;;;;-128.00;-1.00;-1.00;102527;1257;1014049;-49
2023/02/17 00:41:21;;;;;;;9.50;6.00;;;;;;;-128.00;-1.00;-1.00;106569;1253;1013181;-48
2023/02/17 00:43:49;;;;;;;13.00;6.80;;;;;;;-128.00;-1.00;-1.00;106574;1253;1013447;-50
2023/02/17 00:46:17;;;;;;;16.40;6.60;;;;;;;-128.00;-1.00;-1.00;104152;1253;1010496;-49
2023/02/17 00:48:47;;;;;;;13.20;6.20;;;;;;;-128.00;-1.00;-1.00;102569;1253;1013230;-46
2023/02/17 00:51:15;;;;;;;13.10;7.80;;;;;;;-128.00;-1.00;-1.00;102475;1253;1013740;-48
2023/02/17 00:53:44;;;;;;;15.00;7.40;;;;;;;-128.00;-1.00;-1.00;102321;1259;1012908;-45
2023/02/17 00:56:12;;;;;;;15.50;7.30;;;;;;;-128.00;-1.00;-1.00;103053;1256;1013474;-47
2023/02/17 00:58:40;;;;;;;16.20;8.40;;;;;;;-128.00;-1.00;-1.00;102512;1254;1004176;-47
2023/02/17 01:01:09;;;;;;;16.20;8.40;;;;;;;-128.00;-1.00;-1.00;102512;1253;1004867;-46
2023/02/17 01:03:40;;;;;;;19.30;9.30;;;;;;;-128.00;-1.00;-1.00;103941;1259;1012525;-46
2023/02/17 01:06:11;;;;;;;19.50;10.10;;;;;;;-128.00;-1.00;-1.00;102183;1254;1012706;-46
2023/02/17 01:08:40;;;;;;;18.60;10.80;;;;;;;-128.00;-1.00;-1.00;106369;1254;1012738;-47
2023/02/17 01:11:16;;;;;;;19.90;10.30;;;;;;;-128.00;-1.00;-1.00;106574;1254;1002074;-49
2023/02/17 01:13:44;;;;;;;23.70;10.80;;;;;;;-128.00;-1.00;-1.00;103005;1253;1011462;-48
2023/02/17 01:16:28;;;;;;;20.10;10.10;;;;;;;-128.00;-1.00;-1.00;102363;1254;1004914;-47
2023/02/17 01:19:03;;;;;;;14.20;9.40;;;;;;;-128.00;-1.00;-1.00;104726;1253;1012565;-47
2023/02/17 01:21:31;;;;;;;16.40;9.80;;;;;;;-128.00;-1.00;-1.00;102373;1259;1013134;-49
2023/02/17 01:24:01;;;;;;;19.40;10.50;;;;;;;-128.00;-1.00;-1.00;102698;1254;1010249;-48
2023/02/17 01:26:30;;;;;;;21.10;10.60;;;;;;;-128.00;-1.00;-1.00;102459;1256;1011369;-49
2023/02/17 01:28:59;;;;;;;19.70;10.70;;;;;;;-128.00;-1.00;-1.00;102373;1254;1013575;-47
2023/02/17 01:31:27;;;;;;;19.40;10.80;;;;;;;-128.00;-1.00;-1.00;102664;1254;1012708;-44
2023/02/17 01:33:58;;;;;;;19.00;10.60;;;;;;;-128.00;-1.00;-1.00;102821;1256;1012910;-48
2023/02/17 01:36:26;;;;;;;23.60;10.70;;;;;;;-128.00;-1.00;-1.00;102567;1254;1010147;-46
2023/02/17 01:38:59;;;;;;;17.80;12.30;;;;;;;-128.00;-1.00;-1.00;106433;1253;1011496;-49
2023/02/17 01:41:27;;;;;;;22.60;12.60;;;;;;;-128.00;-1.00;-1.00;106549;1253;1013072;-50
2023/02/17 01:44:15;;;;;;;18.40;11.60;;;;;;;-128.00;-1.00;-1.00;102689;1254;1002584;-48
2023/02/17 01:46:45;;;;;;;20.50;11.80;;;;;;;-128.00;-1.00;-1.00;106552;1253;1013270;-47
2023/02/17 01:49:22;;;;;;;24.50;12.30;;;;;;;-128.00;-1.00;-1.00;105306;1252;1009737;-47
2023/02/17 01:51:54;;;;;;;22.10;12.00;;;;;;;-128.00;-1.00;-1.00;104147;1253;1010501;-48
2023/02/17 01:54:32;;;;;;;20.40;12.40;;;;;;;-128.00;-1.00;-1.00;102083;1260;1014267;-48
2023/02/17 01:57:00;;;;;;;21.80;11.90;;;;;;;-128.00;-1.00;-1.00;102591;1254;1013316;-46
2023/02/17 01:59:28;;;;;;;21.40;12.10;;;;;;;-128.00;-1.00;-1.00;103438;1260;1002806;-49
2023/02/17 02:01:58;;;;;;;21.80;11.90;;;;;;;-128.00;-1.00;-1.00;103920;1255;1002652;-50
2023/02/17 02:04:28;;;;;;;17.70;10.60;;;;;;;-128.00;-1.00;-1.00;106528;1253;1010689;-48
2023/02/17 02:06:56;;;;;;;18.50;11.00;;;;;;;-128.00;-1.00;-1.00;105917;1254;1013666;-47
2023/02/17 02:09:34;;;;;;;19.30;11.30;;;;;;;-128.00;-1.00;-1.00;102558;1258;1002958;-46
2023/02/17 02:12:02;;;;;;;23.10;11.00;;;;;;;-128.00;-1.00;-1.00;102465;1256;1012235;-50
2023/02/17 02:14:31;;;;;;;23.80;13.60;;;;;;;-128.00;-1.00;-1.00;102379;1257;1010414;-49
2023/02/17 02:17:08;;;;;;;24.70;13.20;;;;;;;-128.00;-1.00;-1.00;102601;1257;1004227;-46
2023/02/17 02:19:48;;;;;;;21.80;13.50;;;;;;;-128.00;-1.00;-1.00;102671;1254;1013069;-49
2023/02/17 02:22:18;;;;;;;22.30;13.20;;;;;;;-128.00;-1.00;-1.00;106508;1253;1012573;-48
2023/02/17 02:25:21;;;;;;;21.50;14.20;;;;;;;-128.00;-1.00;-1.00;103794;1255;1012380;-48
2023/02/17 02:28:32;;;;;;;28.40;15.40;;;;;;;-128.00;-1.00;-1.00;102286;1253;1011666;-50
2023/02/17 02:31:27;;;;;;;26.20;14.00;;;;;;;-128.00;-1.00;-1.00;106526;1253;1010879;-48
2023/02/17 02:33:59;;;;;;;30.40;14.00;;;;;;;-128.00;-1.00;-1.00;106221;1253;1012994;-48
2023/02/17 02:36:33;;;;;;;25.60;13.00;;;;;;;-128.00;-1.00;-1.00;102662;1256;1013322;-48
2023/02/17 02:39:23;;;;;;;24.60;13.50;;;;;;;-128.00;-1.00;-1.00;102746;1254;1012717;-53
2023/02/17 02:41:57;;;;;;;24.70;12.10;;;;;;;-128.00;-1.00;-1.00;102586;1257;1010404;-47
2023/02/17 02:44:27;;;;;;;23.60;12.70;;;;;;;-128.00;-1.00;-1.00;104228;1253;1010844;-48
2023/02/17 02:47:00;;;;;;;22.90;12.70;;;;;;;-128.00;-1.00;-1.00;103350;1256;1012498;-47
2023/02/17 02:49:34;;;;;;;24.40;13.20;;;;;;;-128.00;-1.00;-1.00;106438;1252;1012778;-49
2023/02/17 02:52:05;;;;;;;21.70;11.90;;;;;;;-128.00;-1.00;-1.00;105171;1254;1012778;-49
2023/02/17 02:54:56;;;;;;;21.60;13.10;;;;;;;-128.00;-1.00;-1.00;102597;1254;1010389;-50
2023/02/17 02:57:24;;;;;;;20.90;12.70;;;;;;;-128.00;-1.00;-1.00;102415;1257;1010729;-49
2023/02/17 03:00:10;;;;;;;23.30;14.10;;;;;;;-128.00;-1.00;-1.00;102408;1253;1013059;-47
2023/02/17 03:02:52;;;;;;;23.00;14.90;;;;;;;-128.00;-1.00;-1.00;102506;1257;1012371;-49
2023/02/17 03:05:23;;;;;;;24.80;15.50;;;;;;;-128.00;-1.00;-1.00;103042;1252;1013493;-49
2023/02/17 03:08:10;;;;;;;25.40;15.20;;;;;;;-128.00;-1.00;-1.00;106296;1253;1010132;-48
2023/02/17 03:10:49;;;;;;;28.00;15.40;;;;;;;-128.00;-1.00;-1.00;102590;1256;1011448;-49
2023/02/17 03:13:18;;;;;;;26.60;14.70;;;;;;;-128.00;-1.00;-1.00;106446;1252;1012139;-48
2023/02/17 03:15:46;;;;;;;20.90;14.00;;;;;;;-128.00;-1.00;-1.00;102759;1260;1012308;-48
2023/02/17 03:18:15;;;;;;;24.40;13.60;;;;;;;-128.00;-1.00;-1.00;106401;1259;1013049;-48
2023/02/17 03:21:05;;;;;;;21.50;12.60;;;;;;;-128.00;-1.00;-1.00;103345;1254;1010387;-48
2023/02/17 03:23:36;;;;;;;21.00;13.50;;;;;;;-128.00;-1.00;-1.00;102914;1254;1010868;-46
2023/02/17 03:26:04;;;;;;;23.20;14.00;;;;;;;-128.00;-1.00;-1.00;102590;1256;1002802;-48
2023/02/17 03:28:33;;;;;;;24.60;14.50;;;;;;;-128.00;-1.00;-1.00;106567;1253;1013150;-50
2023/02/17 03:31:01;;;;;;;27.80;16.90;;;;;;;-128.00;-1.00;-1.00;106526;1254;1012623;-48
2023/02/17 03:33:29;;;;;;;22.40;14.80;;;;;;;-128.00;-1.00;-1.00;103504;1254;1002775;-46
2023/02/17 03:35:57;;;;;;;27.50;16.50;;;;;;;-128.00;-1.00;-1.00;105164;1254;1011746;-49
2023/02/17 03:38:25;;;;;;;30.70;18.00;;;;;;;-128.00;-1.00;-1.00;102593;1256;1005102;-48
2023/02/17 03:40:54;;;;;;;30.40;17.00;;;;;;;-128.00;-1.00;-1.00;103681;1253;1002743;-46
2023/02/17 03:43:21;;;;;;;34.40;17.80;;;;;;;-128.00;-1.00;-1.00;102571;1253;1002683;-46
2023/02/17 03:45:49;;;;;;;32.70;17.90;;;;;;;-128.00;-1.00;-1.00;102564;1254;1004366;-48
2023/02/17 03:48:18;;;;;;;34.40;19.70;;;;;;;-128.00;-1.00;-1.00;106500;1253;1010775;-48
2023/02/17 03:50:46;;;;;;;30.90;17.90;;;;;;;-128.00;-1.00;-1.00;106312;1253;1002063;-46
2023/02/17 03:53:13;;;;;;;25.90;15.50;;;;;;;-128.00;-1.00;-1.00;102804;1256;1002921;-49
2023/02/17 03:55:42;;;;;;;27.50;14.80;;;;;;;-128.00;-1.00;-1.00;103518;1256;1012490;-49
2023/02/17 03:58:10;;;;;;;28.50;16.80;;;;;;;-128.00;-1.00;-1.00;103559;1256;1010855;-48
2023/02/17 04:00:38;;;;;;;30.40;16.30;;;;;;;-128.00;-1.00;-1.00;106588;1253;1010782;-49
2023/02/17 04:03:16;;;;;;;31.00;17.00;;;;;;;-128.00;-1.00;-1.00;102825;1256;1012717;-47
2023/02/17 04:05:44;;;;;;;26.20;16.40;;;;;;;-128.00;-1.00;-1.00;103308;1256;1012399;-45
2023/02/17 04:08:12;;;;;;;28.90;17.30;;;;;;;-128.00;-1.00;-1.00;102450;1253;1002751;-46
2023/02/17 04:10:40;;;;;;;36.10;19.50;;;;;;;-128.00;-1.00;-1.00;102914;1254;1010688;-45
2023/02/17 04:13:08;;;;;;;36.70;19.30;;;;;;;-128.00;-1.00;-1.00;102637;1254;1003417;-47
2023/02/17 04:15:36;;;;;;;35.20;21.60;;;;;;;-128.00;-1.00;-1.00;102512;1254;1002760;-47
2023/02/17 04:18:04;;;;;;;38.30;21.30;;;;;;;-128.00;-1.00;-1.00;106475;1253;1002945;-48
2023/02/17 04:20:32;;;;;;;38.50;21.60;;;;;;;-128.00;-1.00;-1.00;102966;1255;1002584;-46
2023/02/17 04:23:00;;;;;;;41.30;22.70;;;;;;;-128.00;-1.00;-1.00;102442;1253;1012126;-46
2023/02/17 04:25:29;;;;;;;35.90;21.40;;;;;;;-128.00;-1.00;-1.00;106516;1252;1011294;-50
2023/02/17 04:27:56;;;;;;;38.00;20.60;;;;;;;-128.00;-1.00;-1.00;105967;1252;1002285;-49
2023/02/17 04:30:24;;;;;;;30.80;16.10;;;;;;;-128.00;-1.00;-1.00;103065;1253;1002930;-51
2023/02/17 04:32:53;;;;;;;35.20;18.90;;;;;;;-128.00;-1.00;-1.00;102667;1256;1013043;-47
2023/02/17 04:35:21;;;;;;;33.20;20.00;;;;;;;-128.00;-1.00;-1.00;102195;1254;1009964;-50
2023/02/17 04:37:50;;;;;;;31.00;18.60;;;;;;;-128.00;-1.00;-1.00;102350;1254;1010807;-48
2023/02/17 04:40:18;;;;;;;33.70;19.90;;;;;;;-128.00;-1.00;-1.00;102789;1254;1013665;-50
2023/02/17 04:42:50;;;;;;;34.80;20.50;;;;;;;-128.00;-1.00;-1.00;102871;1256;1013237;-49
2023/02/17 04:45:18;;;;;;;36.90;21.20;;;;;;;-128.00;-1.00;-1.00;106422;1252;1003207;-49
2023/02/17 04:47:46;;;;;;;37.70;22.00;;;;;;;-128.00;-1.00;-1.00;105079;1255;1010571;-48
2023/02/17 04:50:14;;;;;;;37.60;23.20;;;;;;;-128.00;-1.00;-1.00;102425;1253;1002803;-47
2023/02/17 04:52:41;;;;;;;38.60;22.30;;;;;;;-128.00;-1.00;-1.00;102696;1256;1002777;-49
2023/02/17 04:55:10;;;;;;;41.80;23.80;;;;;;;-128.00;-1.00;-1.00;102544;1256;1013007;-47
2023/02/17 04:57:38;;;;;;;34.70;20.70;;;;;;;-128.00;-1.00;-1.00;102555;1253;1003195;-50
2023/02/17 05:00:07;;;;;;;37.90;20.70;;;;;;;-128.00;-1.00;-1.00;103580;1253;1002339;-47
2023/02/17 05:02:36;;;;;;;33.30;19.40;;;;;;;-128.00;-1.00;-1.00;104667;1253;1011351;-45
2023/02/17 05:05:04;;;;;;;37.00;21.10;;;;;;;-128.00;-1.00;-1.00;103054;1254;1013052;-46
2023/02/17 05:07:32;;;;;;;33.70;19.70;;;;;;;-128.00;-1.00;-1.00;103149;1256;1012121;-48
2023/02/17 05:10:00;;;;;;;33.40;19.50;;;;;;;-128.00;-1.00;-1.00;102642;1253;1002561;-49
2023/02/17 05:12:28;;;;;;;34.90;20.40;;;;;;;-128.00;-1.00;-1.00;102492;1254;1010991;-50
2023/02/17 05:14:56;;;;;;;40.30;21.40;;;;;;;-128.00;-1.00;-1.00;102600;1256;1003330;-47
2023/02/17 05:17:24;;;;;;;46.80;23.50;;;;;;;-128.00;-1.00;-1.00;102680;1254;1012943;-48
2023/02/17 05:20:55;;;;;;;41.40;25.30;;;;;;;2.22;100.00;99872.41;101940;1292;601065;-49
2023/02/17 05:23:24;;;;;;;42.80;24.80;;;;;;;2.18;100.00;99863.61;104197;1269;60226;-47
2023/02/17 05:25:52;;;;;;;43.90;27.00;;;;;;;2.16;100.00;99854.78;104371;1267;60836;-50
2023/02/17 05:28:20;;;;;;;44.00;26.90;;;;;;;2.15;100.00;99851.08;108310;1267;71085;-48
2023/02/17 05:30:48;;;;;;;42.70;27.10;;;;;;;2.14;100.00;99851.27;105668;1267;66576;-48
2023/02/17 05:33:17;;;;;;;37.60;23.40;;;;;;;2.12;100.00;99850.96;106731;1267;73892;-49
2023/02/17 05:35:45;;;;;;;41.90;24.20;;;;;;;2.11;100.00;99852.02;106427;1266;101118;-49
2023/02/17 05:38:13;;;;;;;41.50;22.20;;;;;;;2.11;100.00;99854.33;104292;1267;59253;-50
2023/02/17 05:40:42;;;;;;;43.90;23.50;;;;;;;2.11;100.00;99856.27;104509;1269;73430;-46
2023/02/17 05:43:10;;;;;;;39.90;22.20;;;;;;;2.13;100.00;99863.67;104490;1269;68031;-46
2023/02/17 05:45:38;;;;;;;35.70;22.40;;;;;;;2.16;100.00;99860.61;104287;1263;71997;-48
2023/02/17 05:48:11;;;;;;;45.00;25.10;;;;;;;2.20;100.00;99858.98;106919;1264;59667;-47
2023/02/17 05:50:40;;;;;;;41.50;23.90;;;;;;;2.26;100.00;99859.79;104326;1264;59270;-47
2023/02/17 05:53:08;;;;;;;42.20;24.70;;;;;;;2.31;100.00;99857.06;104732;1263;73486;-45
2023/02/17 05:55:36;;;;;;;45.60;26.90;;;;;;;2.33;100.00;99851.91;105364;1267;66787;-47
2023/02/17 05:58:04;;;;;;;42.90;25.70;;;;;;;2.33;100.00;99852.61;104356;1264;73864;-48
2023/02/17 06:00:32;;;;;;;48.70;27.50;;;;;;;2.33;100.00;99853.50;107490;1267;59793;-48
2023/02/17 06:03:01;;;;;;;45.30;27.30;;;;;;;2.31;100.00;99848.56;104750;1264;60548;-48
2023/02/17 06:05:29;;;;;;;43.10;25.90;;;;;;;2.29;100.00;99843.47;104340;1263;73139;-48
2023/02/17 06:07:57;;;;;;;42.10;24.60;;;;;;;2.25;100.00;99846.16;104478;1264;69154;-49
2023/02/17 06:10:25;;;;;;;41.50;21.70;;;;;;;2.24;100.00;99845.12;104982;1263;72638;-51
2023/02/17 06:12:53;;;;;;;41.70;24.10;;;;;;;2.24;100.00;99852.02;105579;1267;60509;-51
2023/02/17 06:15:21;;;;;;;39.90;23.30;;;;;;;2.27;100.00;99852.88;104240;1269;59634;-51
2023/02/17 06:17:49;;;;;;;36.90;23.00;;;;;;;2.33;100.00;99856.86;107865;1266;71901;-52
2023/02/17 06:20:18;;;;;;;38.90;22.50;;;;;;;2.37;100.00;99855.23;104325;1268;66285;-51
2023/02/17 06:22:46;;;;;;;47.50;25.90;;;;;;;2.41;100.00;99857.64;105197;1266;73370;-49
2023/02/17 06:25:14;;;;;;;45.20;26.10;;;;;;;2.43;100.00;99860.63;104286;1264;60290;-51
2023/02/17 06:27:43;;;;;;;48.40;27.40;;;;;;;2.45;100.00;99860.43;104241;1263;59608;-50
2023/02/17 06:30:11;;;;;;;44.00;26.30;;;;;;;2.45;100.00;99858.30;104345;1267;72997;-50
2023/02/17 06:32:40;;;;;;;43.50;25.40;;;;;;;2.43;100.00;99859.20;104126;1263;67359;-49
2023/02/17 06:35:09;;;;;;;46.80;28.30;;;;;;;2.41;100.00;99861.70;108488;1262;73331;-51
2023/02/17 06:37:37;;;;;;;41.40;23.10;;;;;;;2.37;100.00;99863.90;108603;1260;60526;-48
2023/02/17 06:40:09;;;;;;;44.70;24.70;;;;;;;2.34;100.00;99872.80;106554;1260;59740;-50
2023/02/17 06:42:41;;;;;;;42.60;24.40;;;;;;;2.31;100.00;99876.18;104472;1266;72952;-49
2023/02/17 06:45:09;;;;;;;41.50;24.00;;;;;;;2.30;100.00;99876.20;108434;1268;68611;-49
2023/02/17 06:47:37;;;;;;;42.80;24.90;;;;;;;2.33;100.00;99873.86;106295;1260;72568;-49
2023/02/17 06:50:07;;;;;;;41.50;25.00;;;;;;;2.37;100.00;99871.70;104413;1262;59808;-50
2023/02/17 06:52:37;;;;;;;45.40;26.10;;;;;;;2.43;100.00;99874.98;104819;1260;60556;-49
2023/02/17 06:55:05;;;;;;;45.20;28.00;;;;;;;2.46;100.00;99871.75;108547;1260;73271;-49
2023/02/17 06:57:34;;;;;;;46.00;27.10;;;;;;;2.49;100.00;99873.81;105978;1261;67151;-49
2023/02/17 07:00:03;;;;;;;46.50;27.90;;;;;;;2.49;100.00;99874.35;104397;1257;71894;-50
2023/02/17 07:02:31;;;;;;;50.00;29.20;;;;;;;2.48;100.00;99874.71;108530;1257;60679;-50
2023/02/17 07:04:59;;;;;;;51.40;27.80;;;;;;;2.45;100.00;99876.17;108706;1256;59649;-51
2023/02/17 07:07:28;;;;;;;55.10;29.90;;;;;;;2.42;100.00;99878.17;106110;1258;72019;-49
2023/02/17 07:09:56;;;;;;;42.70;24.60;;;;;;;2.41;100.00;99881.72;106611;1259;67345;-48
2023/02/17 07:12:28;;;;;;;44.70;26.20;;;;;;;2.40;100.00;99881.38;108817;1257;74155;-51
2023/02/17 07:14:58;;;;;;;46.00;25.70;;;;;;;2.40;100.00;99887.05;108816;1257;61090;-52
2023/02/17 07:17:26;;;;;;;42.50;24.00;;;;;;;2.41;100.00;99878.88;106825;1257;59771;-51
2023/02/17 07:19:55;;;;;;;40.70;23.80;;;;;;;2.46;100.00;99878.13;104060;1257;71191;-51
2023/02/17 07:22:25;;;;;;;43.40;24.90;;;;;;;2.51;100.00;99876.45;108897;1257;67590;-49
2023/02/17 07:24:54;;;;;;;43.60;24.20;;;;;;;2.56;100.00;99873.20;106963;1259;73210;-49
2023/02/17 07:27:22;;;;;;;48.20;25.20;;;;;;;2.62;100.00;99875.77;104118;1256;60275;-51
2023/02/17 07:29:50;;;;;;;43.60;25.60;;;;;;;2.66;100.00;99877.83;108595;1257;60308;-52
2023/02/17 07:32:18;;;;;;;52.20;29.90;;;;;;;2.66;100.00;99875.52;108866;1257;71426;-50
2023/02/17 07:34:46;;;;;;;49.60;29.20;;;;;;;2.64;100.00;99884.39;107992;1257;64961;-51
2023/02/17 07:37:15;;;;;;;52.50;29.60;;;;;;;2.62;100.00;99885.52;104262;1257;74720;-47
2023/02/17 07:39:43;;;;;;;45.80;25.50;;;;;;;2.60;100.00;99884.83;108599;1256;60322;-51
2023/02/17 07:42:13;;;;;;;50.90;26.40;;;;;;;2.58;100.00;99883.98;107948;1257;59614;-51
2023/02/17 07:44:42;;;;;;;43.50;25.30;;;;;;;2.56;100.00;99887.54;104758;1257;72053;-48
2023/02/17 07:47:10;;;;;;;45.30;26.00;;;;;;;2.53;100.00;99888.13;104480;1260;66023;-51
2023/02/17 07:49:38;;;;;;;44.10;23.80;;;;;;;2.55;100.00;99890.58;104914;1257;70370;-49
2023/02/17 07:52:06;;;;;;;46.60;26.10;;;;;;;2.57;100.00;99890.17;104860;1260;59656;-47
2023/02/17 07:54:35;;;;;;;45.00;25.70;;;;;;;2.59;100.00;99897.06;106169;1259;60364;-49
2023/02/17 07:57:03;;;;;;;48.60;27.90;;;;;;;2.59;100.00;99899.72;108738;1256;74745;-50
2023/02/17 07:59:32;;;;;;;50.00;27.70;;;;;;;2.60;100.00;99903.09;108644;1256;66161;-50
2023/02/17 08:02:00;;;;;;;42.10;26.70;;;;;;;2.60;100.00;99907.15;108637;1257;72037;-50
2023/02/17 08:04:28;;;;;;;49.90;28.90;;;;;;;2.59;100.00;99903.98;108571;1256;59779;-52
2023/02/17 08:06:57;;;;;;;47.60;27.60;;;;;;;2.58;100.00;99903.80;108582;1256;61980;-52
2023/02/17 08:15:05;;;;;;;44.50;24.50;;;;;;;2.51;100.00;99906.92;108243;1257;73095;-51
2023/02/17 08:17:33;;;;;;;46.70;26.00;;;;;;;2.51;100.00;99909.92;107994;1257;60223;-49
2023/02/17 08:20:02;;;;;;;55.30;27.10;;;;;;;2.55;100.00;99908.46;104007;1256;60535;-51
2023/02/17 08:22:38;;;;;;;49.20;27.30;;;;;;;2.61;100.00;99907.85;107716;1258;74541;-50
2023/02/17 08:25:07;;;;;;;46.70;26.90;;;;;;;2.65;100.00;99906.89;104332;1262;67870;-51
2023/02/17 08:27:34;;;;;;;57.00;30.40;;;;;;;2.66;100.00;99909.36;104447;1257;71710;-51
2023/02/17 08:30:03;;;;;;;54.90;29.60;;;;;;;2.65;100.00;99909.55;104526;1259;60061;-51
2023/02/17 08:32:31;;;;;;;52.20;29.90;;;;;;;2.65;100.00;99909.91;104659;1258;61213;-50
2023/02/17 08:35:00;;;;;;;50.50;27.30;;;;;;;2.64;100.00;99912.93;108773;1257;73575;-49
2023/02/17 08:37:30;;;;;;;45.50;25.60;;;;;;;2.63;100.00;99910.31;108392;1256;66253;-49
2023/02/17 08:39:58;;;;;;;47.00;25.80;;;;;;;2.62;100.00;99912.27;104527;1259;71570;-51
2023/02/17 08:42:26;;;;;;;42.40;25.40;;;;;;;2.61;100.00;99921.85;104357;1257;62437;-50
2023/02/17 08:44:55;;;;;;;43.00;23.90;;;;;;;2.63;100.00;99928.92;105151;1257;60558;-51
2023/02/17 08:47:23;;;;;;;48.30;26.20;;;;;;;2.64;100.00;99921.45;108699;1258;72935;-51
2023/02/17 08:49:51;;;;;;;49.90;28.00;;;;;;;2.64;100.00;99919.48;108833;1256;66676;-51
2023/02/17 08:52:20;;;;;;;53.30;28.10;;;;;;;2.63;100.00;99920.40;106280;1258;71770;-49
2023/02/17 08:54:51;;;;;;;47.20;26.70;;;;;;;2.62;100.00;99918.64;104819;1260;60169;-48
2023/02/17 08:57:20;;;;;;;54.30;31.30;;;;;;;2.61;100.00;99926.28;108480;1257;58878;-50
2023/02/17 08:59:49;;;;;;;67.00;32.40;;;;;;;2.58;100.00;99924.71;108889;1257;72108;-51
2023/02/17 09:02:17;;;;;;;53.60;29.20;;;;;;;2.55;100.00;99924.40;105694;1260;67259;-49
2023/02/17 09:04:45;;;;;;;53.20;27.50;;;;;;;2.52;100.00;99929.41;108852;1257;72163;-53
2023/02/17 09:07:13;;;;;;;50.30;26.60;;;;;;;2.47;100.00;99930.18;107273;1259;60146;-51
2023/02/17 09:09:41;;;;;;;46.10;25.00;;;;;;;2.44;100.00;99934.83;104610;1257;59995;-51
2023/02/17 09:12:09;;;;;;;50.60;26.00;;;;;;;2.43;100.00;99937.50;104573;1259;72319;-49
2023/02/17 09:14:39;;;;;;;57.10;28.30;;;;;;;2.41;100.00;99941.95;104753;1260;67824;-50
2023/02/17 09:17:07;;;;;;;57.60;29.10;;;;;;;2.40;100.00;99944.25;105085;1257;71663;-51
2023/02/17 09:19:37;;;;;;;57.50;30.10;;;;;;;2.41;100.00;99943.36;105176;1260;60776;-51
2023/02/17 09:22:05;;;;;;;54.20;29.60;;;;;;;2.39;100.00;99943.20;108922;1260;59712;-52
2023/02/17 09:24:37;;;;;;;51.80;28.70;;;;;;;2.37;100.00;99943.60;109227;1254;72313;-52
2023/02/17 09:27:05;;;;;;;47.30;24.00;;;;;;;2.36;100.00;99942.73;106089;1260;65512;-49
2023/02/17 09:29:33;;;;;;;46.50;24.70;;;;;;;2.32;100.00;99943.83;105237;1257;73124;-49
2023/02/17 09:32:05;;;;;;;45.60;24.00;;;;;;;2.29;100.00;99942.45;104933;1259;61754;-50
2023/02/17 09:34:37;;;;;;;43.70;22.70;;;;;;;2.27;100.00;99945.48;106994;1256;61176;-49
2023/02/17 09:37:11;;;;;;;44.00;24.50;;;;;;;2.29;100.00;99946.89;105402;1253;73107;-50
2023/02/17 09:39:40;;;;;;;;;;;;;;;2.32;100.00;99944.36;105204;1256;67345;-47
2023/02/17 09:42:19;;;;;;;43.30;24.40;;;;;;;2.37;100.00;99946.09;109231;1253;72988;-52
2023/02/17 09:44:58;;;;;;;42.90;23.20;;;;;;;2.42;100.00;99945.13;105583;1256;60529;-51
2023/02/17 09:47:59;;;;;;;46.60;25.20;;;;;;;2.41;100.00;99940.16;109089;1254;61567;-50
2023/02/17 09:50:32;;;;;;;45.00;24.10;;;;;;;2.36;100.00;99943.44;107825;1256;74264;-52
2023/02/17 09:53:03;;;;;;;43.30;24.50;;;;;;;2.30;100.00;99944.38;104731;1254;66377;-52
2023/02/17 09:55:42;;;;;;;42.20;21.30;;;;;;;2.26;100.00;99945.49;109115;1253;71626;-52
2023/02/17 09:58:17;;;;;;;44.80;21.70;;;;;;;2.24;100.00;99942.85;105761;1253;60450;-51
2023/02/17 10:00:50;;;;;;;42.00;23.00;;;;;;;2.25;100.00;99938.23;104611;1254;60991;-51
2023/02/17 10:03:29;;;;;;;46.80;22.50;;;;;;;2.26;100.00;99937.35;104644;1255;72785;-51
2023/02/17 10:06:20;;;;;;;44.80;22.40;;;;;;;2.28;100.00;99938.58;108932;1256;65977;-52
2023/02/17 10:08:51;;;;;;;39.10;20.50;;;;;;;2.32;100.00;99936.55;108797;1254;71934;-52
2023/02/17 10:11:43;;;;;;;43.20;21.80;;;;;;;2.34;100.00;99939.20;105064;1254;60354;-50
2023/02/17 10:14:20;;;;;;;43.80;23.50;;;;;;;2.33;100.00;99940.98;105308;1266;60924;-51
2023/02/17 10:16:55;;;;;;;42.80;23.20;;;;;;;2.30;100.00;99940.84;105276;1254;74040;-51
2023/02/17 10:19:29;;;;;;;39.80;20.60;;;;;;;2.30;100.00;99937.50;106397;1254;64813;-51
2023/02/17 10:22:03;;;;;;;40.70;20.20;;;;;;;2.28;100.00;99935.91;109187;1254;71567;-52
2023/02/17 10:24:31;;;;;;;42.40;21.20;;;;;;;2.27;100.00;99934.86;107110;1257;62889;-51
2023/02/17 10:27:04;;;;;;;38.10;20.50;;;;;;;2.27;100.00;99932.55;104575;1254;60428;-51
2023/02/17 10:29:34;;;;;;;38.70;21.00;;;;;;;2.28;100.00;99935.39;109084;1254;74824;-51
2023/02/17 10:32:11;;;;;;;40.20;20.50;;;;;;;2.31;100.00;99934.10;109114;1256;65134;-52
2023/02/17 10:34:57;;;;;;;41.90;22.30;;;;;;;2.35;100.00;99928.92;109208;1254;71788;-52
2023/02/17 10:37:40;;;;;;;41.50;20.70;;;;;;;2.42;100.00;99929.54;109306;1253;58581;-52
2023/02/17 10:40:18;;;;;;;39.70;20.20;;;;;;;2.45;100.00;99928.08;109288;1254;59347;-52
2023/02/17 10:42:47;;;;;;;40.60;20.10;;;;;;;2.46;100.00;99925.77;106739;1256;72538;-49
2023/02/17 10:45:28;;;;;;;35.70;17.50;;;;;;;2.43;100.00;99930.05;105185;1254;68263;-48
2023/02/17 10:48:02;;;;;;;32.70;17.00;;;;;;;2.38;100.00;99928.35;105065;1257;72173;-49
2023/02/17 10:50:31;;;;;;;35.90;17.90;;;;;;;2.32;100.00;99929.66;108952;1254;61496;-51
2023/02/17 10:52:59;;;;;;;38.00;17.70;;;;;;;2.30;100.00;99930.92;106992;1256;60885;-49
2023/02/17 10:55:41;;;;;;;34.50;17.00;;;;;;;2.36;100.00;99928.02;105862;1256;73216;-50
2023/02/17 10:58:18;;;;;;;33.40;18.70;;;;;;;2.42;100.00;99927.23;105106;1256;67061;-49
2023/02/17 11:00:46;;;;;;;29.20;16.50;;;;;;;2.49;100.00;99932.46;108850;1256;72968;-52
2023/02/17 11:03:20;;;;;;;37.10;18.30;;;;;;;2.54;100.00;99926.20;108827;1254;59819;-52
2023/02/17 11:05:57;;;;;;;31.60;18.10;;;;;;;2.56;100.00;99929.52;108931;1257;59581;-51
2023/02/17 11:08:35;;;;;;;35.30;19.00;;;;;;;2.54;100.00;99925.66;107345;1253;74282;-50
2023/02/17 11:11:23;;;;;;;37.00;19.40;;;;;;;2.52;100.00;99929.06;109089;1254;68916;-51
2023/02/17 11:14:01;;;;;;;33.20;17.30;;;;;;;2.47;100.00;99926.98;109034;1254;72175;-52
2023/02/17 11:16:36;;;;;;;34.50;17.00;;;;;;;2.46;100.00;99928.61;105375;1257;60476;-50
2023/02/17 11:19:05;;;;;;;32.30;16.40;;;;;;;2.48;100.00;99926.61;108961;1256;59810;-53
2023/02/17 11:21:36;;;;;;;33.00;17.40;;;;;;;2.50;100.00;99927.48;108783;1254;72054;-53
2023/02/17 11:24:04;;;;;;;32.20;19.00;;;;;;;2.53;100.00;99929.23;109187;1254;67807;-53
2023/02/17 11:26:35;;;;;;;39.20;21.00;;;;;;;2.58;100.00;99925.25;109173;1253;72414;-50
2023/02/17 11:29:17;;;;;;;44.50;22.50;;;;;;;2.61;100.00;99920.61;105171;1257;60679;-51
2023/02/17 11:31:54;;;;;;;40.70;20.70;;;;;;;2.63;100.00;99919.70;104871;1257;60520;-51